| time (UTC) | temp F | wind direction | speed MPH | gust MPH | rain 1hr in | rain 24hr in | rain mn in | humidity % | barometer mb |
| 20260503020545 | 50 | 180 | 1.0 | 2.0 | 0.00 | 0.00 | 0.00 | 62 | 1018.5 |
| 20260503015527 | 51 | 113 | 0.0 | 1.0 | 0.00 | 0.00 | 0.00 | 61 | 1018.4 |
| 20260503014530 | 51 | 0.0 | 0.0 | 0.00 | 0.00 | 0.00 | 61 | 1018.3 | |
| 20260503013526 | 52 | 0.0 | 0.0 | 0.00 | 0.00 | 0.00 | 60 | 1018.3 | |
| 20260503012517 | 53 | 0.0 | 0.0 | 0.00 | 0.00 | 0.00 | 56 | 1018.3 | |
| 20260503011520 | 54 | 0.0 | 0.0 | 0.00 | 0.00 | 0.00 | 54 | 1018.4 | |
| 20260503010516 | 56 | 0.0 | 0.0 | 0.00 | 0.00 | 0.00 | 52 | 1018.4 | |
| 20260503005545 | 57 | 170 | 1.0 | 2.0 | 0.00 | 0.00 | 0.00 | 49 | 1018.4 |
| 20260503004527 | 58 | 151 | 2.0 | 4.0 | 0.00 | 0.00 | 0.00 | 46 | 1018.4 |
| 20260503003530 | 59 | 112 | 2.0 | 3.0 | 0.00 | 0.00 | 0.00 | 47 | 1018.5 |
| 20260503002533 | 60 | 117 | 3.0 | 5.0 | 0.00 | 0.00 | 0.00 | 44 | 1018.5 |
| 20260503001517 | 60 | 119 | 2.0 | 4.0 | 0.00 | 0.00 | 0.00 | 44 | 1018.6 |
| 20260503000519 | 60 | 153 | 3.0 | 5.0 | 0.00 | 0.00 | 0.00 | 44 | 1018.6 |
| 20260502235522 | 60 | 76 | 3.0 | 5.0 | 0.00 | 0.00 | 0.00 | 42 | 1018.7 |
| 20260502234525 | 61 | 120 | 3.0 | 5.0 | 0.00 | 0.00 | 0.00 | 42 | 1018.8 |
| 20260502233527 | 61 | 117 | 4.0 | 8.0 | 0.00 | 0.00 | 0.00 | 43 | 1018.9 |
| 20260502232530 | 60 | 92 | 4.0 | 6.0 | 0.00 | 0.00 | 0.00 | 42 | 1018.9 |
| 20260502231532 | 61 | 144 | 2.0 | 4.0 | 0.00 | 0.00 | 0.00 | 42 | 1019.0 |
| 20260502230517 | 62 | 122 | 5.0 | 7.0 | 0.00 | 0.00 | 0.00 | 41 | 1019.2 |
| 20260502225520 | 62 | 130 | 4.0 | 6.0 | 0.00 | 0.00 | 0.00 | 42 | 1019.3 |
| 20260502224522 | 62 | 114 | 4.0 | 7.0 | 0.00 | 0.00 | 0.00 | 42 | 1019.3 |
| 20260502223545 | 62 | 123 | 3.0 | 5.0 | 0.00 | 0.00 | 0.00 | 41 | 1019.4 |
| 20260502222542 | 62 | 134 | 5.0 | 7.0 | 0.00 | 0.00 | 0.00 | 40 | 1019.4 |
| 20260502221518 | 63 | 92 | 3.0 | 5.0 | 0.00 | 0.00 | 0.00 | 40 | 1019.4 |
| 20260502220536 | 63 | 126 | 5.0 | 8.0 | 0.00 | 0.00 | 0.00 | 41 | 1019.5 |
| 20260502215518 | 63 | 139 | 4.0 | 10.0 | 0.00 | 0.00 | 0.00 | 40 | 1019.6 |
| 20260502214520 | 63 | 130 | 6.0 | 11.0 | 0.00 | 0.00 | 0.00 | 40 | 1019.6 |
| 20260502213527 | 63 | 130 | 4.0 | 8.0 | 0.00 | 0.00 | 0.00 | 40 | 1019.9 |
| 20260502212526 | 63 | 3.0 | 3.0 | 0.00 | 0.00 | 0.00 | 39 | 1019.9 | |
| 20260502211528 | 63 | 139 | 3.0 | 4.0 | 0.00 | 0.00 | 0.00 | 39 | 1020.0 |
| 20260502210530 | 63 | 167 | 4.0 | 8.0 | 0.00 | 0.00 | 0.00 | 39 | 1020.2 |
| 20260502205515 | 63 | 67 | 4.0 | 6.0 | 0.00 | 0.00 | 0.00 | 38 | 1020.4 |
| 20260502204518 | 63 | 132 | 4.0 | 8.0 | 0.00 | 0.00 | 0.00 | 41 | 1020.4 |
| 20260502203521 | 63 | 108 | 3.0 | 6.0 | 0.00 | 0.00 | 0.00 | 39 | 1020.6 |
| 20260502202543 | 63 | 122 | 2.0 | 4.0 | 0.00 | 0.00 | 0.00 | 37 | 1020.9 |
| 20260502201526 | 63 | 92 | 3.0 | 5.0 | 0.00 | 0.00 | 0.00 | 39 | 1021.0 |
| 20260502200529 | 62 | 154 | 5.0 | 10.0 | 0.00 | 0.00 | 0.00 | 38 | 1021.1 |
| 20260502195531 | 63 | 111 | 3.0 | 5.0 | 0.00 | 0.00 | 0.00 | 38 | 1021.3 |
| 20260502194516 | 63 | 82 | 3.0 | 4.0 | 0.00 | 0.00 | 0.00 | 36 | 1021.3 |
| 20260502193525 | 61 | 154 | 2.0 | 4.0 | 0.00 | 0.00 | 0.00 | 38 | 1021.5 |
| 20260502192515 | 63 | 49 | 5.0 | 8.0 | 0.00 | 0.00 | 0.00 | 41 | 1021.6 |
| 20260502191518 | 62 | 133 | 4.0 | 7.0 | 0.00 | 0.00 | 0.00 | 41 | 1021.6 |
| 20260502190521 | 61 | 118 | 3.0 | 6.0 | 0.00 | 0.00 | 0.00 | 40 | 1021.7 |
| 20260502185523 | 60 | 138 | 4.0 | 6.0 | 0.00 | 0.00 | 0.00 | 39 | 1021.8 |
| 20260502184546 | 61 | 181 | 3.0 | 5.0 | 0.00 | 0.00 | 0.00 | 40 | 1022.1 |
| 20260502183529 | 60 | 227 | 2.0 | 5.0 | 0.00 | 0.00 | 0.00 | 39 | 1022.1 |
| 20260502182531 | 60 | 144 | 6.0 | 9.0 | 0.00 | 0.00 | 0.00 | 40 | 1022.2 |
| 20260502181535 | 60 | 146 | 3.0 | 4.0 | 0.00 | 0.00 | 0.00 | 40 | 1022.4 |
| 20260502180521 | 59 | 146 | 4.0 | 5.0 | 0.00 | 0.00 | 0.00 | 43 | 1022.4 |
| 20260502163518 | 58 | 145 | 4.0 | 7.0 | 0.00 | 0.00 | 0.00 | 42 | 1023.2 |
| 20260502162521 | 55 | 130 | 3.0 | 4.0 | 0.00 | 0.00 | 0.00 | 44 | 1023.2 |
| 20260502161518 | 58 | 94 | 3.0 | 6.0 | 0.00 | 0.00 | 0.00 | 44 | 1023.2 |
| 20260502160526 | 58 | 127 | 5.0 | 7.0 | 0.00 | 0.00 | 0.00 | 45 | 1023.2 |
| 20260502151542 | 56 | 179 | 2.0 | 5.0 | 0.00 | 0.00 | 0.00 | 51 | 1023.3 |
| 20260502150524 | 54 | 135 | 3.0 | 4.0 | 0.00 | 0.00 | 0.00 | 60 | 1023.3 |
| 20260502130532 | 41 | 81 | 2.0 | 2.0 | 0.00 | 0.00 | 0.00 | 96 | 1023.3 |
| 20260502123522 | 39 | 225 | 0.0 | 1.0 | 0.00 | 0.00 | 0.00 | 97 | 1023.2 |
| 20260502122545 | 37 | 0.0 | 0.0 | 0.00 | 0.00 | 0.00 | 99 | 1023.0 | |
| 20260502121547 | 38 | 0.0 | 0.0 | 0.00 | 0.00 | 0.00 | 95 | 1023.0 | |
| 20260502120529 | 36 | 0.0 | 0.0 | 0.00 | 0.00 | 0.00 | 98 | 1023.0 | |
| 20260502115532 | 34 | 0.0 | 0.0 | 0.00 | 0.00 | 0.00 | 99 | 1022.9 | |
| 20260502113519 | 31 | 0.0 | 0.0 | 0.00 | 0.00 | 0.00 | 99 | 1022.6 | |
| 20260502112522 | 31 | 0.0 | 0.0 | 0.00 | 0.00 | 0.00 | 99 | 1022.5 | |
| 20260502111524 | 31 | 0.0 | 0.0 | 0.00 | 0.00 | 0.00 | 99 | 1022.5 | |
| 20260502110527 | 31 | 0.0 | 0.0 | 0.00 | 0.00 | 0.00 | 99 | 1022.5 | |
| 20260502105530 | 31 | 0.0 | 0.0 | 0.00 | 0.00 | 0.00 | 99 | 1022.5 | |
| 20260502104527 | 32 | 0.0 | 0.0 | 0.00 | 0.00 | 0.00 | 99 | 1022.4 | |
| 20260502103517 | 31 | 0.0 | 0.0 | 0.00 | 0.00 | 0.00 | 99 | 1022.3 | |
| 20260502102520 | 32 | 0.0 | 0.0 | 0.00 | 0.00 | 0.00 | 97 | 1022.3 | |
| 20260502101516 | 32 | 0.0 | 0.0 | 0.00 | 0.00 | 0.00 | 98 | 1022.3 | |
| 20260502100525 | 32 | 0.0 | 0.0 | 0.00 | 0.00 | 0.00 | 96 | 1022.3 | |
| 20260502090522 | 35 | 0.0 | 0.0 | 0.00 | 0.00 | 0.00 | 94 | 1022.1 | |
| 20260502071516 | 39 | 0.0 | 0.0 | 0.00 | 0.00 | 0.00 | 84 | 1022.0 | |
| 20260502070530 | 39 | 0.0 | 0.0 | 0.00 | 0.00 | 0.00 | 84 | 1022.0 | |
| 20260502065516 | 39 | 0.0 | 0.0 | 0.00 | 0.00 | 0.00 | 84 | 1022.0 | |
| 20260502064518 | 40 | 0.0 | 0.0 | 0.00 | 0.00 | 0.00 | 84 | 1021.9 | |
| 20260502063521 | 41 | 0.0 | 0.0 | 0.00 | 0.00 | 0.00 | 82 | 1021.9 | |
| 20260502062523 | 41 | 0.0 | 0.0 | 0.00 | 0.00 | 0.00 | 82 | 1022.0 | |
| 20260502061526 | 42 | 0.0 | 0.0 | 0.00 | 0.00 | 0.00 | 82 | 1022.0 | |
| 20260502060528 | 42 | 0.0 | 0.0 | 0.00 | 0.00 | 0.00 | 81 | 1021.9 | |
| 20260502055551 | 42 | 0.0 | 0.0 | 0.00 | 0.00 | 0.00 | 81 | 1021.9 | |
| 20260502054535 | 43 | 0.0 | 0.0 | 0.00 | 0.00 | 0.00 | 80 | 1021.9 | |
| 20260502053518 | 43 | 0.0 | 0.0 | 0.00 | 0.00 | 0.00 | 80 | 1021.6 | |
| 20260502052521 | 44 | 0.0 | 0.0 | 0.00 | 0.00 | 0.00 | 79 | 1021.8 | |
| 20260502051523 | 44 | 0.0 | 0.0 | 0.00 | 0.00 | 0.00 | 78 | 1021.7 | |
| 20260502050526 | 44 | 180 | 0.0 | 2.0 | 0.00 | 0.00 | 0.00 | 78 | 1021.6 |
| 20260502045528 | 44 | 0.0 | 0.0 | 0.00 | 0.00 | 0.00 | 78 | 1021.6 | |
| 20260502044525 | 44 | 0.0 | 0.0 | 0.00 | 0.00 | 0.00 | 81 | 1021.5 | |
| 20260502043515 | 44 | 0.0 | 0.0 | 0.00 | 0.00 | 0.00 | 83 | 1021.5 | |
| 20260502042518 | 44 | 0.0 | 0.0 | 0.00 | 0.00 | 0.00 | 85 | 1021.5 | |
| 20260502041521 | 44 | 0.0 | 0.0 | 0.00 | 0.00 | 0.00 | 86 | 1021.4 | |
| 20260502040523 | 44 | 0.0 | 0.0 | 0.00 | 0.00 | 0.00 | 85 | 1021.4 | |
| 20260502035546 | 44 | 0.0 | 0.0 | 0.00 | 0.00 | 0.00 | 86 | 1021.5 | |
| 20260502034528 | 44 | 0.0 | 0.0 | 0.00 | 0.00 | 0.00 | 87 | 1021.3 | |
| 20260502033531 | 44 | 0.0 | 0.0 | 0.00 | 0.00 | 0.00 | 87 | 1021.3 | |
| 20260502032516 | 44 | 0.0 | 0.0 | 0.00 | 0.00 | 0.00 | 83 | 1021.3 | |
| 20260502031518 | 45 | 180 | 0.0 | 2.0 | 0.00 | 0.00 | 0.00 | 82 | 1021.1 |
| 20260502030520 | 44 | 169 | 2.0 | 3.0 | 0.00 | 0.00 | 0.00 | 84 | 1021.0 |
| 20260502025523 | 44 | 158 | 0.0 | 3.0 | 0.00 | 0.00 | 0.00 | 84 | 1020.9 |
| 20260502024526 | 43 | 0.0 | 0.0 | 0.00 | 0.00 | 0.00 | 84 | 1020.7 | |
| 20260502023528 | 44 | 0.0 | 0.0 | 0.00 | 0.00 | 0.00 | 84 | 1020.6 | |
| 20260502022531 | 44 | 0.0 | 0.0 | 0.00 | 0.00 | 0.00 | 82 | 1020.4 | |
| 20260502021516 | 44 | 0.0 | 0.0 | 0.00 | 0.00 | 0.00 | 80 | 1020.3 |